sensor_id;sensor_type;location;lat;lon;timestamp;temperature;humidity
4312;DHT22;2169;49.086;9.284;2023-02-01T00:00:58;5.90;71.40
4312;DHT22;2169;49.086;9.284;2023-02-01T00:03:25;5.90;71.30
4312;DHT22;2169;49.086;9.284;2023-02-01T00:05:57;5.90;71.30
4312;DHT22;2169;49.086;9.284;2023-02-01T00:08:24;5.90;71.30
4312;DHT22;2169;49.086;9.284;2023-02-01T00:10:58;5.90;71.30
4312;DHT22;2169;49.086;9.284;2023-02-01T00:13:28;5.90;71.40
4312;DHT22;2169;49.086;9.284;2023-02-01T00:16:04;5.90;71.30
4312;DHT22;2169;49.086;9.284;2023-02-01T00:18:31;5.90;71.40
4312;DHT22;2169;49.086;9.284;2023-02-01T00:20:59;5.90;71.40
4312;DHT22;2169;49.086;9.284;2023-02-01T00:23:26;5.90;72.10
4312;DHT22;2169;49.086;9.284;2023-02-01T00:25:53;5.90;71.40
4312;DHT22;2169;49.086;9.284;2023-02-01T00:28:21;5.90;71.40
4312;DHT22;2169;49.086;9.284;2023-02-01T00:30:56;5.90;71.40
4312;DHT22;2169;49.086;9.284;2023-02-01T00:33:25;5.90;71.40
4312;DHT22;2169;49.086;9.284;2023-02-01T00:35:56;5.90;71.40
4312;DHT22;2169;49.086;9.284;2023-02-01T00:38:23;5.90;71.40
4312;DHT22;2169;49.086;9.284;2023-02-01T00:40:49;5.90;71.50
4312;DHT22;2169;49.086;9.284;2023-02-01T00:43:18;5.90;71.50
4312;DHT22;2169;49.086;9.284;2023-02-01T00:45:45;5.90;71.60
4312;DHT22;2169;49.086;9.284;2023-02-01T00:48:12;5.90;71.60
4312;DHT22;2169;49.086;9.284;2023-02-01T00:50:43;5.90;71.60
4312;DHT22;2169;49.086;9.284;2023-02-01T00:53:10;5.90;72.10
4312;DHT22;2169;49.086;9.284;2023-02-01T00:55:37;5.90;71.70
4312;DHT22;2169;49.086;9.284;2023-02-01T00:58:04;5.90;71.70
4312;DHT22;2169;49.086;9.284;2023-02-01T01:00:34;5.90;71.80
4312;DHT22;2169;49.086;9.284;2023-02-01T01:03:01;5.90;71.80
4312;DHT22;2169;49.086;9.284;2023-02-01T01:05:44;5.90;71.80
4312;DHT22;2169;49.086;9.284;2023-02-01T01:08:11;5.90;71.80
4312;DHT22;2169;49.086;9.284;2023-02-01T01:10:39;5.90;71.80
4312;DHT22;2169;49.086;9.284;2023-02-01T01:13:07;5.90;71.80
4312;DHT22;2169;49.086;9.284;2023-02-01T01:15:36;5.90;71.80
4312;DHT22;2169;49.086;9.284;2023-02-01T01:18:04;5.90;71.80
4312;DHT22;2169;49.086;9.284;2023-02-01T01:20:31;5.90;71.80
4312;DHT22;2169;49.086;9.284;2023-02-01T01:23:00;5.90;71.70
4312;DHT22;2169;49.086;9.284;2023-02-01T01:25:26;5.90;71.80
4312;DHT22;2169;49.086;9.284;2023-02-01T01:27:53;5.90;71.80
4312;DHT22;2169;49.086;9.284;2023-02-01T01:30:20;5.90;71.70
4312;DHT22;2169;49.086;9.284;2023-02-01T01:32:47;5.90;71.70
4312;DHT22;2169;49.086;9.284;2023-02-01T01:35:14;5.90;71.70
4312;DHT22;2169;49.086;9.284;2023-02-01T01:37:41;5.90;71.80
4312;DHT22;2169;49.086;9.284;2023-02-01T01:40:12;5.90;71.80
4312;DHT22;2169;49.086;9.284;2023-02-01T01:42:41;5.90;71.80
4312;DHT22;2169;49.086;9.284;2023-02-01T01:45:19;5.90;71.70
4312;DHT22;2169;49.086;9.284;2023-02-01T01:47:48;6.00;71.80
4312;DHT22;2169;49.086;9.284;2023-02-01T01:50:20;5.90;71.80
4312;DHT22;2169;49.086;9.284;2023-02-01T01:52:49;6.00;72.50
4312;DHT22;2169;49.086;9.284;2023-02-01T01:55:20;5.90;71.70
4312;DHT22;2169;49.086;9.284;2023-02-01T01:57:52;6.00;71.90
4312;DHT22;2169;49.086;9.284;2023-02-01T02:00:20;6.00;72.50
4312;DHT22;2169;49.086;9.284;2023-02-01T02:02:53;6.00;71.90
4312;DHT22;2169;49.086;9.284;2023-02-01T02:05:21;6.00;71.90
4312;DHT22;2169;49.086;9.284;2023-02-01T02:07:49;5.90;71.80
4312;DHT22;2169;49.086;9.284;2023-02-01T02:10:19;6.00;71.90
4312;DHT22;2169;49.086;9.284;2023-02-01T02:13:07;6.00;72.00
4312;DHT22;2169;49.086;9.284;2023-02-01T02:15:35;6.00;71.90
4312;DHT22;2169;49.086;9.284;2023-02-01T02:18:09;6.00;72.00
4312;DHT22;2169;49.086;9.284;2023-02-01T02:21:06;6.00;72.00
4312;DHT22;2169;49.086;9.284;2023-02-01T02:23:59;6.00;72.00
4312;DHT22;2169;49.086;9.284;2023-02-01T02:30:21;6.00;72.00
4312;DHT22;2169;49.086;9.284;2023-02-01T02:36:00;5.90;72.10
4312;DHT22;2169;49.086;9.284;2023-02-01T02:38:33;5.90;72.10
4312;DHT22;2169;49.086;9.284;2023-02-01T02:41:13;5.90;72.10
4312;DHT22;2169;49.086;9.284;2023-02-01T02:44:08;5.90;72.10
4312;DHT22;2169;49.086;9.284;2023-02-01T02:46:56;5.90;72.20
4312;DHT22;2169;49.086;9.284;2023-02-01T02:49:46;5.90;72.20
4312;DHT22;2169;49.086;9.284;2023-02-01T02:52:39;5.90;72.10
4312;DHT22;2169;49.086;9.284;2023-02-01T02:55:28;6.00;72.20
4312;DHT22;2169;49.086;9.284;2023-02-01T02:57:58;5.90;72.20
4312;DHT22;2169;49.086;9.284;2023-02-01T03:00:43;6.00;72.20
4312;DHT22;2169;49.086;9.284;2023-02-01T03:03:28;6.00;72.30
4312;DHT22;2169;49.086;9.284;2023-02-01T03:06:13;6.00;72.20
4312;DHT22;2169;49.086;9.284;2023-02-01T03:08:43;5.90;72.10
4312;DHT22;2169;49.086;9.284;2023-02-01T03:11:12;6.00;72.20
4312;DHT22;2169;49.086;9.284;2023-02-01T03:13:43;6.00;72.20
4312;DHT22;2169;49.086;9.284;2023-02-01T03:16:15;6.00;72.20
4312;DHT22;2169;49.086;9.284;2023-02-01T03:18:48;6.00;72.20
4312;DHT22;2169;49.086;9.284;2023-02-01T03:21:20;6.00;72.20
4312;DHT22;2169;49.086;9.284;2023-02-01T03:23:51;6.00;72.20
4312;DHT22;2169;49.086;9.284;2023-02-01T03:26:20;6.00;72.20
4312;DHT22;2169;49.086;9.284;2023-02-01T03:28:53;6.00;72.20
4312;DHT22;2169;49.086;9.284;2023-02-01T03:31:21;6.00;72.20
4312;DHT22;2169;49.086;9.284;2023-02-01T03:33:48;6.00;72.20
4312;DHT22;2169;49.086;9.284;2023-02-01T03:36:19;6.00;72.10
4312;DHT22;2169;49.086;9.284;2023-02-01T03:38:54;6.00;72.10
4312;DHT22;2169;49.086;9.284;2023-02-01T03:41:27;6.00;72.10
4312;DHT22;2169;49.086;9.284;2023-02-01T03:44:03;6.00;72.10
4312;DHT22;2169;49.086;9.284;2023-02-01T03:46:33;6.10;72.20
4312;DHT22;2169;49.086;9.284;2023-02-01T03:49:02;6.10;72.10
4312;DHT22;2169;49.086;9.284;2023-02-01T03:51:31;6.10;72.10
4312;DHT22;2169;49.086;9.284;2023-02-01T03:54:02;6.10;72.10
4312;DHT22;2169;49.086;9.284;2023-02-01T03:56:30;6.10;72.10
4312;DHT22;2169;49.086;9.284;2023-02-01T03:58:58;6.10;72.10
4312;DHT22;2169;49.086;9.284;2023-02-01T04:01:26;6.10;72.00
4312;DHT22;2169;49.086;9.284;2023-02-01T04:03:53;6.10;72.00
4312;DHT22;2169;49.086;9.284;2023-02-01T04:06:20;6.10;72.00
4312;DHT22;2169;49.086;9.284;2023-02-01T04:08:47;6.10;72.00
4312;DHT22;2169;49.086;9.284;2023-02-01T04:11:16;6.20;72.00
4312;DHT22;2169;49.086;9.284;2023-02-01T04:13:43;6.20;72.10
4312;DHT22;2169;49.086;9.284;2023-02-01T04:16:10;6.20;72.00
4312;DHT22;2169;49.086;9.284;2023-02-01T04:18:38;6.20;72.00
4312;DHT22;2169;49.086;9.284;2023-02-01T04:21:05;6.20;71.90
4312;DHT22;2169;49.086;9.284;2023-02-01T04:23:32;6.20;71.90
4312;DHT22;2169;49.086;9.284;2023-02-01T04:25:59;6.20;71.90
4312;DHT22;2169;49.086;9.284;2023-02-01T04:28:28;6.20;71.90
4312;DHT22;2169;49.086;9.284;2023-02-01T04:30:56;6.20;71.80
4312;DHT22;2169;49.086;9.284;2023-02-01T04:33:24;6.20;71.80
4312;DHT22;2169;49.086;9.284;2023-02-01T04:35:51;6.20;71.70
4312;DHT22;2169;49.086;9.284;2023-02-01T04:38:18;6.20;71.70
4312;DHT22;2169;49.086;9.284;2023-02-01T04:40:47;6.20;71.70
4312;DHT22;2169;49.086;9.284;2023-02-01T04:43:15;6.20;71.70
4312;DHT22;2169;49.086;9.284;2023-02-01T04:45:46;6.20;72.30
4312;DHT22;2169;49.086;9.284;2023-02-01T04:48:13;6.20;71.70
4312;DHT22;2169;49.086;9.284;2023-02-01T04:50:40;6.20;71.70
4312;DHT22;2169;49.086;9.284;2023-02-01T04:53:07;6.20;71.70
4312;DHT22;2169;49.086;9.284;2023-02-01T04:55:34;6.20;71.70
4312;DHT22;2169;49.086;9.284;2023-02-01T04:58:01;6.20;71.70
4312;DHT22;2169;49.086;9.284;2023-02-01T05:00:29;6.20;71.60
4312;DHT22;2169;49.086;9.284;2023-02-01T05:02:57;6.20;71.60
4312;DHT22;2169;49.086;9.284;2023-02-01T05:05:24;6.20;71.70
4312;DHT22;2169;49.086;9.284;2023-02-01T05:07:52;6.20;71.60
4312;DHT22;2169;49.086;9.284;2023-02-01T05:10:20;6.20;71.60
4312;DHT22;2169;49.086;9.284;2023-02-01T05:12:47;6.20;71.60
4312;DHT22;2169;49.086;9.284;2023-02-01T05:15:31;6.20;71.60
4312;DHT22;2169;49.086;9.284;2023-02-01T05:18:00;6.20;71.60
4312;DHT22;2169;49.086;9.284;2023-02-01T05:20:27;6.20;71.60
4312;DHT22;2169;49.086;9.284;2023-02-01T05:22:54;6.20;71.60
4312;DHT22;2169;49.086;9.284;2023-02-01T05:25:21;6.20;71.60
4312;DHT22;2169;49.086;9.284;2023-02-01T05:27:48;6.20;71.60
4312;DHT22;2169;49.086;9.284;2023-02-01T05:30:17;6.20;71.60
4312;DHT22;2169;49.086;9.284;2023-02-01T05:32:43;6.20;71.60
4312;DHT22;2169;49.086;9.284;2023-02-01T05:35:12;6.20;71.60
4312;DHT22;2169;49.086;9.284;2023-02-01T05:37:39;6.20;71.50
4312;DHT22;2169;49.086;9.284;2023-02-01T05:40:07;6.30;71.60
4312;DHT22;2169;49.086;9.284;2023-02-01T05:42:35;6.20;71.50
4312;DHT22;2169;49.086;9.284;2023-02-01T05:45:03;6.20;71.50
4312;DHT22;2169;49.086;9.284;2023-02-01T05:47:33;6.20;71.50
4312;DHT22;2169;49.086;9.284;2023-02-01T05:50:00;6.30;71.50
4312;DHT22;2169;49.086;9.284;2023-02-01T05:52:28;6.20;71.40
4312;DHT22;2169;49.086;9.284;2023-02-01T05:54:55;6.20;71.40
4312;DHT22;2169;49.086;9.284;2023-02-01T05:57:22;6.30;71.40
4312;DHT22;2169;49.086;9.284;2023-02-01T05:59:49;6.30;71.40
4312;DHT22;2169;49.086;9.284;2023-02-01T06:02:16;6.20;71.40
4312;DHT22;2169;49.086;9.284;2023-02-01T06:05:21;6.20;72.00
4312;DHT22;2169;49.086;9.284;2023-02-01T06:07:33;6.20;71.30
4312;DHT22;2169;49.086;9.284;2023-02-01T06:10:00;6.20;71.40
4312;DHT22;2169;49.086;9.284;2023-02-01T06:12:27;6.20;71.40
4312;DHT22;2169;49.086;9.284;2023-02-01T06:14:54;6.20;71.40
4312;DHT22;2169;49.086;9.284;2023-02-01T06:17:21;6.20;71.40
4312;DHT22;2169;49.086;9.284;2023-02-01T06:19:48;6.20;71.40
4312;DHT22;2169;49.086;9.284;2023-02-01T06:22:15;6.20;72.10
4312;DHT22;2169;49.086;9.284;2023-02-01T06:24:43;6.20;71.50
4312;DHT22;2169;49.086;9.284;2023-02-01T06:27:10;6.20;71.40
4312;DHT22;2169;49.086;9.284;2023-02-01T06:29:38;6.20;71.40
4312;DHT22;2169;49.086;9.284;2023-02-01T06:32:05;6.20;71.40
4312;DHT22;2169;49.086;9.284;2023-02-01T06:34:32;6.20;71.50
4312;DHT22;2169;49.086;9.284;2023-02-01T06:36:59;6.20;71.50
4312;DHT22;2169;49.086;9.284;2023-02-01T06:39:26;6.20;71.50
4312;DHT22;2169;49.086;9.284;2023-02-01T06:41:55;6.20;71.50
4312;DHT22;2169;49.086;9.284;2023-02-01T06:44:22;6.20;71.60
4312;DHT22;2169;49.086;9.284;2023-02-01T06:46:49;6.20;71.70
4312;DHT22;2169;49.086;9.284;2023-02-01T06:49:16;6.20;71.70
4312;DHT22;2169;49.086;9.284;2023-02-01T06:51:43;6.20;71.70
4312;DHT22;2169;49.086;9.284;2023-02-01T06:54:20;6.20;71.80
4312;DHT22;2169;49.086;9.284;2023-02-01T06:56:50;6.20;71.90
4312;DHT22;2169;49.086;9.284;2023-02-01T06:59:18;6.20;71.90
4312;DHT22;2169;49.086;9.284;2023-02-01T07:01:45;6.20;72.00
4312;DHT22;2169;49.086;9.284;2023-02-01T07:04:12;6.20;72.70
4312;DHT22;2169;49.086;9.284;2023-02-01T07:06:40;6.20;72.10
4312;DHT22;2169;49.086;9.284;2023-02-01T07:09:07;6.20;72.10
4312;DHT22;2169;49.086;9.284;2023-02-01T07:11:34;6.20;72.20
4312;DHT22;2169;49.086;9.284;2023-02-01T07:14:02;6.20;72.20
4312;DHT22;2169;49.086;9.284;2023-02-01T07:16:31;6.20;72.20
4312;DHT22;2169;49.086;9.284;2023-02-01T07:18:58;6.20;72.30
4312;DHT22;2169;49.086;9.284;2023-02-01T07:21:25;6.20;72.20
4312;DHT22;2169;49.086;9.284;2023-02-01T07:23:53;6.20;72.20
4312;DHT22;2169;49.086;9.284;2023-02-01T07:26:20;6.20;72.30
4312;DHT22;2169;49.086;9.284;2023-02-01T07:28:48;6.20;72.20
4312;DHT22;2169;49.086;9.284;2023-02-01T07:31:16;6.10;72.20
4312;DHT22;2169;49.086;9.284;2023-02-01T07:33:46;6.10;72.20
4312;DHT22;2169;49.086;9.284;2023-02-01T07:36:17;6.10;72.20
4312;DHT22;2169;49.086;9.284;2023-02-01T07:38:44;6.10;72.30
4312;DHT22;2169;49.086;9.284;2023-02-01T07:41:12;6.10;72.30
4312;DHT22;2169;49.086;9.284;2023-02-01T07:43:39;6.10;72.40
4312;DHT22;2169;49.086;9.284;2023-02-01T07:46:06;6.20;72.40
4312;DHT22;2169;49.086;9.284;2023-02-01T07:48:34;6.20;72.50
4312;DHT22;2169;49.086;9.284;2023-02-01T07:51:03;6.10;72.30
4312;DHT22;2169;49.086;9.284;2023-02-01T07:53:32;6.10;72.20
4312;DHT22;2169;49.086;9.284;2023-02-01T07:56:00;6.10;72.20
4312;DHT22;2169;49.086;9.284;2023-02-01T07:58:27;6.10;72.30
4312;DHT22;2169;49.086;9.284;2023-02-01T08:00:55;6.10;72.40
4312;DHT22;2169;49.086;9.284;2023-02-01T08:03:40;6.10;72.40
4312;DHT22;2169;49.086;9.284;2023-02-01T08:06:09;6.10;72.50
4312;DHT22;2169;49.086;9.284;2023-02-01T08:08:36;6.10;72.50
4312;DHT22;2169;49.086;9.284;2023-02-01T08:11:04;6.10;72.70
4312;DHT22;2169;49.086;9.284;2023-02-01T08:13:33;6.00;72.60
4312;DHT22;2169;49.086;9.284;2023-02-01T08:16:01;6.00;72.70
4312;DHT22;2169;49.086;9.284;2023-02-01T08:18:28;6.00;72.80
4312;DHT22;2169;49.086;9.284;2023-02-01T08:20:56;6.00;72.90
4312;DHT22;2169;49.086;9.284;2023-02-01T08:23:24;6.10;73.00
4312;DHT22;2169;49.086;9.284;2023-02-01T08:25:51;6.10;73.00
4312;DHT22;2169;49.086;9.284;2023-02-01T08:28:18;6.10;73.10
4312;DHT22;2169;49.086;9.284;2023-02-01T08:30:45;6.10;73.10
4312;DHT22;2169;49.086;9.284;2023-02-01T08:33:12;6.10;73.10
4312;DHT22;2169;49.086;9.284;2023-02-01T08:35:39;6.20;73.10
4312;DHT22;2169;49.086;9.284;2023-02-01T08:38:07;6.20;73.20
4312;DHT22;2169;49.086;9.284;2023-02-01T08:40:35;6.20;73.10
4312;DHT22;2169;49.086;9.284;2023-02-01T08:43:02;6.20;73.10
4312;DHT22;2169;49.086;9.284;2023-02-01T08:45:29;6.20;73.10
4312;DHT22;2169;49.086;9.284;2023-02-01T08:47:56;6.20;73.10
4312;DHT22;2169;49.086;9.284;2023-02-01T08:50:24;6.20;73.10
4312;DHT22;2169;49.086;9.284;2023-02-01T08:52:52;6.20;73.10
4312;DHT22;2169;49.086;9.284;2023-02-01T08:55:19;6.20;73.00
4312;DHT22;2169;49.086;9.284;2023-02-01T08:57:48;6.30;73.10
4312;DHT22;2169;49.086;9.284;2023-02-01T09:00:16;6.30;73.00
4312;DHT22;2169;49.086;9.284;2023-02-01T09:02:44;6.20;72.90
4312;DHT22;2169;49.086;9.284;2023-02-01T09:05:11;6.30;73.00
4312;DHT22;2169;49.086;9.284;2023-02-01T09:07:39;6.30;72.90
4312;DHT22;2169;49.086;9.284;2023-02-01T09:10:07;6.30;72.90
4312;DHT22;2169;49.086;9.284;2023-02-01T09:12:35;6.30;72.80
4312;DHT22;2169;49.086;9.284;2023-02-01T09:15:06;6.30;72.80
4312;DHT22;2169;49.086;9.284;2023-02-01T09:17:34;6.30;72.70
4312;DHT22;2169;49.086;9.284;2023-02-01T09:20:01;6.30;72.70
4312;DHT22;2169;49.086;9.284;2023-02-01T09:22:28;6.30;72.70
4312;DHT22;2169;49.086;9.284;2023-02-01T09:24:55;6.40;72.70
4312;DHT22;2169;49.086;9.284;2023-02-01T09:27:22;6.40;72.70
4312;DHT22;2169;49.086;9.284;2023-02-01T09:29:50;6.50;72.70
4312;DHT22;2169;49.086;9.284;2023-02-01T09:32:23;6.50;72.50
4312;DHT22;2169;49.086;9.284;2023-02-01T09:34:51;6.50;72.50
4312;DHT22;2169;49.086;9.284;2023-02-01T09:37:18;6.50;72.40
4312;DHT22;2169;49.086;9.284;2023-02-01T09:39:45;6.50;72.30
4312;DHT22;2169;49.086;9.284;2023-02-01T09:42:21;6.50;72.20
4312;DHT22;2169;49.086;9.284;2023-02-01T09:45:02;6.60;72.20
4312;DHT22;2169;49.086;9.284;2023-02-01T09:47:34;6.60;72.10
4312;DHT22;2169;49.086;9.284;2023-02-01T09:50:04;6.60;72.10
4312;DHT22;2169;49.086;9.284;2023-02-01T09:52:36;6.60;72.10
4312;DHT22;2169;49.086;9.284;2023-02-01T09:55:09;6.60;72.00
4312;DHT22;2169;49.086;9.284;2023-02-01T09:57:42;6.70;72.10
4312;DHT22;2169;49.086;9.284;2023-02-01T10:00:17;6.70;72.10
4312;DHT22;2169;49.086;9.284;2023-02-01T10:02:46;6.70;72.00
4312;DHT22;2169;49.086;9.284;2023-02-01T10:05:16;6.80;72.00
4312;DHT22;2169;49.086;9.284;2023-02-01T10:07:51;6.80;72.00
4312;DHT22;2169;49.086;9.284;2023-02-01T10:10:29;6.80;72.00
4312;DHT22;2169;49.086;9.284;2023-02-01T10:13:09;6.80;71.90
4312;DHT22;2169;49.086;9.284;2023-02-01T10:15:55;6.90;71.80
4312;DHT22;2169;49.086;9.284;2023-02-01T10:18:45;6.90;71.80
4312;DHT22;2169;49.086;9.284;2023-02-01T10:21:23;6.90;71.40
4312;DHT22;2169;49.086;9.284;2023-02-01T10:27:01;6.90;71.20
4312;DHT22;2169;49.086;9.284;2023-02-01T10:29:34;7.00;71.20
4312;DHT22;2169;49.086;9.284;2023-02-01T10:32:02;6.90;71.00
4312;DHT22;2169;49.086;9.284;2023-02-01T10:34:33;7.00;71.10
4312;DHT22;2169;49.086;9.284;2023-02-01T10:37:11;7.00;70.90
4312;DHT22;2169;49.086;9.284;2023-02-01T10:39:45;7.00;70.70
4312;DHT22;2169;49.086;9.284;2023-02-01T10:42:13;7.00;70.60
4312;DHT22;2169;49.086;9.284;2023-02-01T10:44:43;7.00;70.50
4312;DHT22;2169;49.086;9.284;2023-02-01T10:47:11;7.00;71.00
4312;DHT22;2169;49.086;9.284;2023-02-01T10:49:43;7.00;70.10
4312;DHT22;2169;49.086;9.284;2023-02-01T10:52:15;7.10;70.00
4312;DHT22;2169;49.086;9.284;2023-02-01T10:54:43;7.00;69.90
4312;DHT22;2169;49.086;9.284;2023-02-01T10:57:19;7.10;69.90
4312;DHT22;2169;49.086;9.284;2023-02-01T10:59:46;7.10;69.80
4312;DHT22;2169;49.086;9.284;2023-02-01T11:02:23;7.10;69.80
4312;DHT22;2169;49.086;9.284;2023-02-01T11:05:01;7.20;70.40
4312;DHT22;2169;49.086;9.284;2023-02-01T11:07:28;7.20;69.70
4312;DHT22;2169;49.086;9.284;2023-02-01T11:09:55;7.20;69.60
4312;DHT22;2169;49.086;9.284;2023-02-01T11:12:32;7.20;69.60
4312;DHT22;2169;49.086;9.284;2023-02-01T11:15:13;7.30;69.50
4312;DHT22;2169;49.086;9.284;2023-02-01T11:17:43;7.30;69.40
4312;DHT22;2169;49.086;9.284;2023-02-01T11:20:17;7.30;69.30
4312;DHT22;2169;49.086;9.284;2023-02-01T11:22:48;7.30;69.10
4312;DHT22;2169;49.086;9.284;2023-02-01T11:25:22;7.30;68.80
4312;DHT22;2169;49.086;9.284;2023-02-01T11:27:50;7.30;68.70
4312;DHT22;2169;49.086;9.284;2023-02-01T11:30:26;7.30;68.70
4312;DHT22;2169;49.086;9.284;2023-02-01T11:32:54;7.30;68.30
4312;DHT22;2169;49.086;9.284;2023-02-01T11:35:23;7.30;68.10
4312;DHT22;2169;49.086;9.284;2023-02-01T11:37:54;7.30;67.90
4312;DHT22;2169;49.086;9.284;2023-02-01T11:40:27;7.30;67.80
4312;DHT22;2169;49.086;9.284;2023-02-01T11:42:57;7.30;67.80
4312;DHT22;2169;49.086;9.284;2023-02-01T11:45:27;7.30;67.70
4312;DHT22;2169;49.086;9.284;2023-02-01T11:47:55;7.30;67.60
4312;DHT22;2169;49.086;9.284;2023-02-01T11:50:30;7.30;67.50
4312;DHT22;2169;49.086;9.284;2023-02-01T11:53:13;7.30;67.40
4312;DHT22;2169;49.086;9.284;2023-02-01T11:55:55;7.30;67.40
4312;DHT22;2169;49.086;9.284;2023-02-01T11:58:36;7.30;67.30
4312;DHT22;2169;49.086;9.284;2023-02-01T12:01:18;7.20;67.00
4312;DHT22;2169;49.086;9.284;2023-02-01T12:04:08;7.30;67.00
4312;DHT22;2169;49.086;9.284;2023-02-01T12:06:48;7.30;67.70
4312;DHT22;2169;49.086;9.284;2023-02-01T12:09:32;7.30;66.80
4312;DHT22;2169;49.086;9.284;2023-02-01T12:12:08;7.30;66.70
4312;DHT22;2169;49.086;9.284;2023-02-01T12:14:53;7.30;66.60
4312;DHT22;2169;49.086;9.284;2023-02-01T12:17:44;7.30;66.40
4312;DHT22;2169;49.086;9.284;2023-02-01T12:20:24;7.30;66.30
4312;DHT22;2169;49.086;9.284;2023-02-01T12:23:10;7.30;66.30
4312;DHT22;2169;49.086;9.284;2023-02-01T12:25:54;7.30;66.00
4312;DHT22;2169;49.086;9.284;2023-02-01T12:28:37;7.30;66.00
4312;DHT22;2169;49.086;9.284;2023-02-01T12:31:19;7.30;65.90
4312;DHT22;2169;49.086;9.284;2023-02-01T12:34:07;7.30;65.90
4312;DHT22;2169;49.086;9.284;2023-02-01T12:36:43;7.30;65.90
4312;DHT22;2169;49.086;9.284;2023-02-01T12:39:22;7.30;65.90
4312;DHT22;2169;49.086;9.284;2023-02-01T12:41:56;7.30;65.90
4312;DHT22;2169;49.086;9.284;2023-02-01T12:44:44;7.30;65.90
4312;DHT22;2169;49.086;9.284;2023-02-01T12:47:19;7.40;65.80
4312;DHT22;2169;49.086;9.284;2023-02-01T12:49:53;7.40;65.80
4312;DHT22;2169;49.086;9.284;2023-02-01T12:52:26;7.30;65.70
4312;DHT22;2169;49.086;9.284;2023-02-01T12:54:59;7.40;65.70
4312;DHT22;2169;49.086;9.284;2023-02-01T12:57:32;7.40;65.70
4312;DHT22;2169;49.086;9.284;2023-02-01T13:00:05;7.40;65.60
4312;DHT22;2169;49.086;9.284;2023-02-01T13:02:40;7.40;65.50
4312;DHT22;2169;49.086;9.284;2023-02-01T13:05:17;7.40;65.50
4312;DHT22;2169;49.086;9.284;2023-02-01T13:07:48;7.40;65.40
4312;DHT22;2169;49.086;9.284;2023-02-01T13:10:21;7.40;65.30
4312;DHT22;2169;49.086;9.284;2023-02-01T13:12:54;7.40;65.30
4312;DHT22;2169;49.086;9.284;2023-02-01T13:15:25;7.40;65.10
4312;DHT22;2169;49.086;9.284;2023-02-01T13:17:57;7.40;64.90
4312;DHT22;2169;49.086;9.284;2023-02-01T13:20:29;7.40;64.90
4312;DHT22;2169;49.086;9.284;2023-02-01T13:23:00;7.30;64.70
4312;DHT22;2169;49.086;9.284;2023-02-01T13:25:35;7.40;64.90
4312;DHT22;2169;49.086;9.284;2023-02-01T13:28:07;7.40;64.90
4312;DHT22;2169;49.086;9.284;2023-02-01T13:30:49;7.40;64.70
4312;DHT22;2169;49.086;9.284;2023-02-01T13:33:41;7.40;64.70
4312;DHT22;2169;49.086;9.284;2023-02-01T13:36:22;7.40;64.70
4312;DHT22;2169;49.086;9.284;2023-02-01T13:39:09;7.30;64.70
4312;DHT22;2169;49.086;9.284;2023-02-01T13:41:52;7.40;64.80
4312;DHT22;2169;49.086;9.284;2023-02-01T13:44:25;7.40;64.90
4312;DHT22;2169;49.086;9.284;2023-02-01T13:46:56;7.40;65.60
4312;DHT22;2169;49.086;9.284;2023-02-01T13:49:26;7.40;64.90
4312;DHT22;2169;49.086;9.284;2023-02-01T13:51:56;7.40;64.80
4312;DHT22;2169;49.086;9.284;2023-02-01T13:54:29;7.40;64.90
4312;DHT22;2169;49.086;9.284;2023-02-01T13:56:58;7.40;64.90
4312;DHT22;2169;49.086;9.284;2023-02-01T13:59:52;7.40;65.00
4312;DHT22;2169;49.086;9.284;2023-02-01T14:02:50;7.40;64.90
4312;DHT22;2169;49.086;9.284;2023-02-01T14:08:35;7.40;65.00
4312;DHT22;2169;49.086;9.284;2023-02-01T14:11:03;7.40;65.20
4312;DHT22;2169;49.086;9.284;2023-02-01T14:13:33;7.40;65.90
4312;DHT22;2169;49.086;9.284;2023-02-01T14:16:15;7.40;65.30
4312;DHT22;2169;49.086;9.284;2023-02-01T14:19:00;7.50;65.40
4312;DHT22;2169;49.086;9.284;2023-02-01T14:21:30;7.50;65.30
4312;DHT22;2169;49.086;9.284;2023-02-01T14:24:01;7.40;65.10
4312;DHT22;2169;49.086;9.284;2023-02-01T14:26:42;7.40;65.20
4312;DHT22;2169;49.086;9.284;2023-02-01T14:29:24;7.40;65.10
4312;DHT22;2169;49.086;9.284;2023-02-01T14:32:03;7.40;65.10
4312;DHT22;2169;49.086;9.284;2023-02-01T14:34:38;7.40;65.00
4312;DHT22;2169;49.086;9.284;2023-02-01T14:37:11;7.40;65.00
4312;DHT22;2169;49.086;9.284;2023-02-01T14:39:51;7.40;65.10
4312;DHT22;2169;49.086;9.284;2023-02-01T14:42:23;7.50;65.10
4312;DHT22;2169;49.086;9.284;2023-02-01T14:44:53;7.40;64.90
4312;DHT22;2169;49.086;9.284;2023-02-01T14:47:31;7.40;65.00
4312;DHT22;2169;49.086;9.284;2023-02-01T14:52:47;7.40;65.00
4312;DHT22;2169;49.086;9.284;2023-02-01T14:55:17;7.40;64.90
4312;DHT22;2169;49.086;9.284;2023-02-01T14:57:48;7.40;65.00
4312;DHT22;2169;49.086;9.284;2023-02-01T15:00:21;7.40;65.00
4312;DHT22;2169;49.086;9.284;2023-02-01T15:02:50;7.40;65.00
4312;DHT22;2169;49.086;9.284;2023-02-01T15:05:28;7.40;65.00
4312;DHT22;2169;49.086;9.284;2023-02-01T15:08:15;7.40;65.00
4312;DHT22;2169;49.086;9.284;2023-02-01T15:10:46;7.40;64.90
4312;DHT22;2169;49.086;9.284;2023-02-01T15:13:22;7.30;64.80
4312;DHT22;2169;49.086;9.284;2023-02-01T15:16:02;7.40;64.90
4312;DHT22;2169;49.086;9.284;2023-02-01T15:18:29;7.40;64.90
4312;DHT22;2169;49.086;9.284;2023-02-01T15:20:57;7.30;64.80
4312;DHT22;2169;49.086;9.284;2023-02-01T15:23:24;7.30;64.90
4312;DHT22;2169;49.086;9.284;2023-02-01T15:25:51;7.30;64.90
4312;DHT22;2169;49.086;9.284;2023-02-01T15:28:18;7.30;64.80
4312;DHT22;2169;49.086;9.284;2023-02-01T15:30:54;7.30;64.80
4312;DHT22;2169;49.086;9.284;2023-02-01T15:33:24;7.30;64.70
4312;DHT22;2169;49.086;9.284;2023-02-01T15:35:53;7.30;64.70
4312;DHT22;2169;49.086;9.284;2023-02-01T15:38:36;7.30;64.70
4312;DHT22;2169;49.086;9.284;2023-02-01T15:41:07;7.30;64.70
4312;DHT22;2169;49.086;9.284;2023-02-01T15:43:41;7.20;64.60
4312;DHT22;2169;49.086;9.284;2023-02-01T15:46:11;7.20;64.60
4312;DHT22;2169;49.086;9.284;2023-02-01T15:48:46;7.30;64.80
4312;DHT22;2169;49.086;9.284;2023-02-01T15:51:16;7.20;64.70
4312;DHT22;2169;49.086;9.284;2023-02-01T15:53:47;7.20;64.60
4312;DHT22;2169;49.086;9.284;2023-02-01T15:56:15;7.20;64.60
4312;DHT22;2169;49.086;9.284;2023-02-01T15:58:46;7.20;64.60
4312;DHT22;2169;49.086;9.284;2023-02-01T16:01:15;7.20;64.60
4312;DHT22;2169;49.086;9.284;2023-02-01T16:03:45;7.20;64.70
4312;DHT22;2169;49.086;9.284;2023-02-01T16:06:28;7.20;64.60
4312;DHT22;2169;49.086;9.284;2023-02-01T16:09:01;7.20;64.60
4312;DHT22;2169;49.086;9.284;2023-02-01T16:11:30;7.20;64.70
4312;DHT22;2169;49.086;9.284;2023-02-01T16:13:59;7.20;64.60
4312;DHT22;2169;49.086;9.284;2023-02-01T16:16:28;7.20;64.60
4312;DHT22;2169;49.086;9.284;2023-02-01T16:18:58;7.20;64.60
4312;DHT22;2169;49.086;9.284;2023-02-01T16:21:25;7.20;64.60
4312;DHT22;2169;49.086;9.284;2023-02-01T16:23:52;7.10;64.50
4312;DHT22;2169;49.086;9.284;2023-02-01T16:26:20;7.20;64.70
4312;DHT22;2169;49.086;9.284;2023-02-01T16:28:48;7.10;64.50
4312;DHT22;2169;49.086;9.284;2023-02-01T16:31:16;7.10;64.50
4312;DHT22;2169;49.086;9.284;2023-02-01T16:33:46;7.10;64.50
4312;DHT22;2169;49.086;9.284;2023-02-01T16:36:15;7.10;65.20
4312;DHT22;2169;49.086;9.284;2023-02-01T16:38:42;7.10;64.50
4312;DHT22;2169;49.086;9.284;2023-02-01T16:41:14;7.10;64.50
4312;DHT22;2169;49.086;9.284;2023-02-01T16:43:41;7.10;64.50
4312;DHT22;2169;49.086;9.284;2023-02-01T16:46:13;7.10;64.50
4312;DHT22;2169;49.086;9.284;2023-02-01T16:48:50;7.10;63.90
4312;DHT22;2169;49.086;9.284;2023-02-01T16:51:20;7.10;64.50
4312;DHT22;2169;49.086;9.284;2023-02-01T16:53:48;7.10;64.40
4312;DHT22;2169;49.086;9.284;2023-02-01T16:56:17;7.00;64.30
4312;DHT22;2169;49.086;9.284;2023-02-01T16:58:45;7.10;64.40
4312;DHT22;2169;49.086;9.284;2023-02-01T17:01:14;7.10;64.40